KCVO/CVO METAR and TAF weather

Enter ICAO airport designator
Station Type Date Time Source
KCVO METAR 2021/03/05 04:56 UTC NOAA

KCVO 050456Z AUTO 00000KT 10SM CLR 08/06 A2999 RMK AO2 SLP158 T00830061


Station Type Date Time Source
KCVO Decoded METAR 2021/03/05 04:56 UTC NOAA

Corvallis, Corvallis Municipal Airport, OR, United States (KCVO) 44-30N 123-17W
Mar 04, 2021 - 11:56 PM EST / 2021.03.05 0456 UTC
Wind: Calm:0
Visibility: 10 mile(s):0
Sky conditions: clear
Temperature: 46.9 F (8.3 C)
Dew Point: 43.0 F (6.1 C)
Relative Humidity: 86%
Pressure (altimeter): 29.99 in. Hg (1015 hPa)
ob: KCVO 050456Z AUTO 00000KT 10SM CLR 08/06 A2999 RMK AO2 SLP158 T00830061
cycle: 5

Station Type Date Time Source
KCVO TAF UTC NOAA

Error!

Example: see airport list